Time;durP1;ratioP1;P1;durP2;ratioP2;P2;SDS_P1;SDS_P2;PMS_P1;PMS_P2;Temp;Humidity;BMP_temperature;BMP_pressure;BME280_temperature;BME280_humidity;BME280_pressure;Samples;Min_cycle;Max_cycle;Signal;HPM_P1;HPM_P2
2023/10/02 00:01:23;;;;;;;22.63;12.20;;;14.30;99.90;;;;;;5074872;28;20510;-69
2023/10/02 00:04:15;;;;;;;22.08;12.40;;;14.30;99.90;;;;;;5075113;28;20463;-69
2023/10/02 00:06:36;;;;;;;22.48;12.00;;;14.30;99.90;;;;;;5074027;28;20024;-69
2023/10/02 00:09:04;;;;;;;26.25;13.75;;;14.30;99.90;;;;;;5074351;28;20039;-69
2023/10/02 00:11:46;;;;;;;21.15;11.27;;;14.30;99.90;;;;;;5073899;28;20127;-68
2023/10/02 00:14:19;;;;;;;24.00;12.07;;;14.30;99.90;;;;;;5074604;28;20382;-69
2023/10/02 00:17:03;;;;;;;19.70;11.02;;;14.30;99.90;;;;;;5074392;28;20108;-69
2023/10/02 00:19:39;;;;;;;24.80;12.75;;;14.20;99.90;;;;;;5074846;28;20028;-69
2023/10/02 00:22:34;;;;;;;22.25;12.45;;;14.20;99.90;;;;;;5074549;28;20394;-69
2023/10/02 00:24:58;;;;;;;23.67;12.30;;;14.20;99.90;;;;;;5073657;28;20032;-69
2023/10/02 00:27:24;;;;;;;21.35;12.48;;;14.20;99.90;;;;;;5074209;28;20066;-69
2023/10/02 00:29:51;;;;;;;21.88;12.32;;;14.20;99.90;;;;;;5074667;28;20025;-69
2023/10/02 00:32:19;;;;;;;21.92;12.45;;;14.10;99.90;;;;;;5074112;28;20067;-69
2023/10/02 00:34:46;;;;;;;21.85;12.52;;;14.10;99.90;;;;;;5074000;28;20112;-69
2023/10/02 00:37:12;;;;;;;20.58;11.50;;;14.10;99.90;;;;;;5074506;28;20454;-68
2023/10/02 00:39:38;;;;;;;19.23;11.70;;;14.00;99.90;;;;;;5074542;28;20027;-69
2023/10/02 00:42:36;;;;;;;26.58;12.93;;;14.00;99.90;;;;;;5074234;28;20024;-69
2023/10/02 00:44:54;;;;;;;21.08;11.27;;;14.00;99.90;;;;;;5073312;28;20021;-69
2023/10/02 00:48:24;;;;;;;22.50;12.25;;;14.00;99.90;;;;;;5074062;28;20036;-68
2023/10/02 00:50:17;;;;;;;20.98;11.98;;;14.00;99.90;;;;;;5073279;28;20491;-69
2023/10/02 00:52:48;;;;;;;19.75;11.93;;;13.90;99.90;;;;;;5074063;28;20077;-68
2023/10/02 00:55:17;;;;;;;19.42;11.38;;;13.90;99.90;;;;;;5074048;28;20017;-69
2023/10/02 00:57:45;;;;;;;19.50;10.68;;;13.90;99.90;;;;;;5073978;28;20025;-68
2023/10/02 01:00:47;;;;;;;23.75;12.25;;;13.90;99.90;;;;;;5073845;28;20035;-68
2023/10/02 01:02:59;;;;;;;24.40;13.02;;;13.90;99.90;;;;;;5073176;28;20020;-69
2023/10/02 01:05:30;;;;;;;19.08;11.77;;;13.80;99.90;;;;;;5073992;28;20079;-68
2023/10/02 01:07:58;;;;;;;25.10;14.05;;;13.90;99.90;;;;;;5073497;28;20036;-69
2023/10/02 01:10:29;;;;;;;23.48;13.23;;;13.80;99.90;;;;;;5073659;28;20371;-68
2023/10/02 01:13:01;;;;;;;22.90;12.30;;;13.80;99.90;;;;;;5073536;28;20059;-68
2023/10/02 01:15:28;;;;;;;20.05;11.82;;;13.80;99.90;;;;;;5073959;28;20060;-69
2023/10/02 01:18:08;;;;;;;20.05;11.60;;;13.80;99.90;;;;;;5073822;28;20067;-68
2023/10/02 01:20:35;;;;;;;22.80;12.40;;;13.80;99.90;;;;;;5074064;28;20060;-69
2023/10/02 01:23:19;;;;;;;22.08;11.52;;;13.80;99.90;;;;;;5073801;28;20078;-69
2023/10/02 01:25:47;;;;;;;24.15;13.40;;;13.70;99.90;;;;;;5073698;28;20024;-69
2023/10/02 01:28:15;;;;;;;22.67;12.98;;;13.70;99.90;;;;;;5073970;28;20086;-69
2023/10/02 01:30:42;;;;;;;25.38;12.98;;;13.70;99.90;;;;;;5073233;28;20484;-68
2023/10/02 01:33:12;;;;;;;26.70;12.77;;;13.70;99.90;;;;;;5073657;28;20462;-68
2023/10/02 01:35:47;;;;;;;21.73;12.18;;;13.70;99.90;;;;;;5073681;28;20098;-68
2023/10/02 01:38:14;;;;;;;22.42;13.15;;;13.60;99.90;;;;;;5073447;28;20028;-68
2023/10/02 01:40:48;;;;;;;25.70;13.50;;;13.60;99.90;;;;;;5072613;28;20024;-68
2023/10/02 01:43:14;;;;;;;;;;;13.60;99.90;;;;;;5074389;28;20031;-68
2023/10/02 01:45:42;;;;;;;27.50;14.00;;;13.60;99.90;;;;;;5073820;28;19905;-68
2023/10/02 01:48:13;;;;;;;23.90;13.38;;;13.60;99.90;;;;;;5073561;28;20101;-68
2023/10/02 01:50:40;;;;;;;26.48;14.13;;;13.60;99.90;;;;;;5073639;28;20466;-68
2023/10/02 01:53:06;;;;;;;22.73;13.10;;;13.50;99.90;;;;;;5072530;28;20021;-69
2023/10/02 01:55:35;;;;;;;25.48;13.80;;;13.50;99.90;;;;;;5073671;28;20020;-68
2023/10/02 01:58:16;;;;;;;24.10;13.15;;;13.50;99.90;;;;;;5073062;28;20111;-68
2023/10/02 02:00:45;;;;;;;22.25;12.73;;;13.40;99.90;;;;;;5073363;28;20028;-68
2023/10/02 02:03:14;;;;;;;23.50;12.80;;;13.40;99.90;;;;;;5072415;28;20025;-68
2023/10/02 02:05:40;;;;;;;22.48;12.38;;;13.40;99.90;;;;;;5073194;28;20020;-68
2023/10/02 02:08:21;;;;;;;23.02;12.32;;;13.40;99.90;;;;;;5072887;28;20107;-68
2023/10/02 02:10:48;;;;;;;19.55;11.57;;;13.40;99.90;;;;;;5072799;28;20056;-68
2023/10/02 02:13:14;;;;;;;22.95;11.77;;;13.40;99.90;;;;;;5073604;28;20028;-68
2023/10/02 02:15:51;;;;;;;19.48;11.60;;;13.40;99.90;;;;;;5072923;28;20040;-68
2023/10/02 02:18:19;;;;;;;19.92;10.95;;;13.40;99.90;;;;;;5073913;28;20051;-68
2023/10/02 02:20:57;;;;;;;19.80;11.15;;;13.30;99.90;;;;;;5076463;28;20078;-69
2023/10/02 02:23:24;;;;;;;23.75;12.73;;;13.30;99.90;;;;;;5076784;28;20489;-69
2023/10/02 02:25:50;;;;;;;27.33;13.90;;;13.30;99.90;;;;;;5076518;28;20035;-69
2023/10/02 02:28:16;;;;;;;23.20;12.52;;;13.30;99.90;;;;;;5076654;28;20405;-68
2023/10/02 02:30:43;;;;;;;19.15;11.65;;;13.30;99.90;;;;;;5076268;28;20048;-69
2023/10/02 02:33:09;;;;;;;21.08;11.52;;;13.30;99.90;;;;;;5076651;28;20107;-69
2023/10/02 02:35:36;;;;;;;23.58;12.30;;;13.20;99.90;;;;;;5076543;28;20466;-69
2023/10/02 02:38:03;;;;;;;20.02;11.10;;;13.20;99.90;;;;;;5076372;28;20034;-69
2023/10/02 02:40:31;;;;;;;20.23;11.50;;;13.20;99.90;;;;;;5076395;28;20025;-68
2023/10/02 02:42:56;;;;;;;23.83;12.32;;;13.20;99.90;;;;;;5076398;28;20020;-69
2023/10/02 02:45:28;;;;;;;22.60;12.23;;;13.10;99.90;;;;;;5076677;28;20082;-75
2023/10/02 02:47:54;;;;;;;24.02;12.75;;;13.10;99.90;;;;;;5076753;28;20055;-68
2023/10/02 02:50:28;;;;;;;25.77;13.32;;;13.10;99.90;;;;;;5075342;28;20021;-68
2023/10/02 02:53:16;;;;;;;24.38;13.02;;;13.10;99.90;;;;;;5075886;28;20031;-68
2023/10/02 02:55:39;;;;;;;19.95;10.75;;;13.10;99.90;;;;;;5075443;28;20382;-76
2023/10/02 02:58:06;;;;;;;22.98;11.82;;;13.10;99.90;;;;;;5076130;28;20025;-68
2023/10/02 03:00:35;;;;;;;22.08;11.60;;;13.10;99.90;;;;;;5076015;28;20367;-68
2023/10/02 03:03:02;;;;;;;21.13;11.65;;;13.10;99.90;;;;;;5076298;28;20112;-69
2023/10/02 03:05:42;;;;;;;21.50;10.90;;;13.10;99.90;;;;;;5076079;28;20051;-68
2023/10/02 03:08:11;;;;;;;22.85;12.05;;;13.10;99.90;;;;;;5075606;28;20030;-68
2023/10/02 03:10:39;;;;;;;22.98;11.55;;;13.10;99.90;;;;;;5075106;28;20608;-69
2023/10/02 03:13:08;;;;;;;23.73;13.60;;;13.00;99.90;;;;;;5075941;28;20021;-68
2023/10/02 03:15:49;;;;;;;25.13;12.88;;;13.00;99.90;;;;;;5074985;28;20107;-68
2023/10/02 03:18:23;;;;;;;19.67;11.23;;;13.00;99.90;;;;;;5075700;28;20060;-68
2023/10/02 03:20:50;;;;;;;24.05;12.38;;;13.00;99.90;;;;;;5076053;28;20470;-68
2023/10/02 03:23:18;;;;;;;21.75;11.70;;;13.00;99.90;;;;;;5074991;28;20108;-69
2023/10/02 03:25:47;;;;;;;21.23;11.98;;;13.10;99.90;;;;;;5075580;28;20463;-69
2023/10/02 03:28:27;;;;;;;23.85;11.45;;;13.10;99.90;;;;;;5075558;28;20028;-68
2023/10/02 03:30:53;;;;;;;22.92;12.18;;;13.00;99.90;;;;;;5075436;28;20078;-69
2023/10/02 03:33:20;;;;;;;23.27;12.23;;;13.00;99.90;;;;;;5075677;28;20039;-68
2023/10/02 03:35:58;;;;;;;19.92;11.13;;;13.00;99.90;;;;;;5075270;28;20024;-68
2023/10/02 03:38:25;;;;;;;21.90;12.02;;;13.00;99.90;;;;;;5075477;28;20056;-69
2023/10/02 03:40:56;;;;;;;21.77;11.85;;;13.00;99.90;;;;;;5075390;28;20462;-69
2023/10/02 03:43:34;;;;;;;20.45;12.25;;;12.90;99.90;;;;;;5074925;28;20031;-69
2023/10/02 03:46:04;;;;;;;21.83;11.07;;;12.90;99.90;;;;;;5075223;28;20028;-68
2023/10/02 03:48:31;;;;;;;21.52;11.23;;;12.90;99.90;;;;;;5075060;28;20051;-69
2023/10/02 03:50:56;;;;;;;19.80;11.82;;;12.90;99.90;;;;;;5075119;28;20486;-69
2023/10/02 03:53:30;;;;;;;18.52;10.90;;;12.90;99.90;;;;;;5074962;28;20017;-69
2023/10/02 03:56:36;;;;;;;23.17;12.55;;;12.90;99.90;;;;;;5075095;28;20025;-69
2023/10/02 03:58:49;;;;;;;21.23;11.82;;;12.90;99.90;;;;;;5074255;28;20035;-69
2023/10/02 04:01:17;;;;;;;20.27;12.32;;;12.90;99.90;;;;;;5074983;28;20493;-69
2023/10/02 04:06:33;;;;;;;23.83;12.73;;;12.90;99.90;;;;;;5074072;28;20036;-69
2023/10/02 04:09:13;;;;;;;20.95;12.15;;;12.80;99.90;;;;;;5074216;28;20078;-68
2023/10/02 04:11:42;;;;;;;30.63;14.05;;;12.90;99.90;;;;;;5073865;28;20102;-69
2023/10/02 04:14:39;;;;;;;23.58;13.13;;;12.90;99.90;;;;;;5074976;28;20466;-69
2023/10/02 04:17:09;;;;;;;29.02;14.50;;;12.90;99.90;;;;;;5073815;28;20025;-68
2023/10/02 04:19:40;;;;;;;24.38;13.25;;;12.90;99.90;;;;;;5074576;28;20378;-69
2023/10/02 04:22:07;;;;;;;26.92;13.32;;;12.90;99.90;;;;;;5074808;28;20089;-69
2023/10/02 04:24:51;;;;;;;31.30;15.30;;;13.00;99.90;;;;;;5074449;28;20027;-69
2023/10/02 04:27:22;;;;;;;25.88;13.93;;;13.00;99.90;;;;;;5074319;28;20028;-69
2023/10/02 04:32:33;;;;;;;25.25;13.45;;;13.00;99.90;;;;;;5073479;28;20024;-69
2023/10/02 04:35:02;;;;;;;25.92;13.98;;;13.00;99.90;;;;;;5074502;28;20033;-69
2023/10/02 04:37:31;;;;;;;23.55;13.15;;;13.00;99.90;;;;;;5073581;28;20033;-69
2023/10/02 04:45:21;;;;;;;27.60;14.75;;;12.90;99.90;;;;;;5110968;28;20516;-68
2023/10/02 04:47:48;;;;;;;25.45;12.93;;;12.90;99.90;;;;;;5112076;28;20032;-68
2023/10/02 04:53:22;;;;;;;25.02;13.35;;;12.90;99.90;;;;;;5111932;27;20308;-68
2023/10/02 04:55:43;;;;;;;26.05;13.63;;;12.90;99.90;;;;;;5111043;28;20035;-68
2023/10/02 04:58:28;;;;;;;26.48;14.80;;;12.90;99.90;;;;;;5111285;28;20019;-68
2023/10/02 05:01:28;;;;;;;29.80;15.15;;;12.90;99.90;;;;;;5111363;28;20435;-68
2023/10/02 05:03:55;;;;;;;29.48;14.73;;;12.90;99.90;;;;;;5110886;28;20034;-68
2023/10/02 05:06:55;;;;;;;30.65;14.68;;;12.90;99.90;;;;;;5111640;28;20396;-68
2023/10/02 05:09:20;;;;;;;27.58;14.55;;;12.90;99.90;;;;;;5110748;28;20020;-68
2023/10/02 05:11:55;;;;;;;29.02;14.60;;;12.90;99.90;;;;;;5111283;28;20028;-68
2023/10/02 05:14:29;;;;;;;29.88;15.13;;;12.90;99.90;;;;;;5111684;28;20035;-68
2023/10/02 05:19:56;;;;;;;26.20;13.38;;;12.90;99.90;;;;;;5110554;28;20020;-69
2023/10/02 05:22:24;;;;;;;25.13;12.88;;;12.90;99.90;;;;;;5111571;28;20070;-68
2023/10/02 05:24:58;;;;;;;21.73;11.52;;;12.90;99.90;;;;;;5111336;28;20031;-68
2023/10/02 05:27:38;;;;;;;25.20;13.27;;;12.90;99.90;;;;;;5111510;28;20035;-68
2023/10/02 05:30:12;;;;;;;24.38;12.52;;;12.90;99.90;;;;;;5110855;28;20038;-69
2023/10/02 05:32:39;;;;;;;28.63;14.80;;;12.90;99.90;;;;;;5111193;28;20051;-69
2023/10/02 05:37:51;;;;;;;27.38;13.65;;;13.00;99.90;;;;;;5071459;28;20865;-68
2023/10/02 05:48:19;;;;;;;27.27;13.68;;;13.10;99.90;;;;;;5070889;28;20029;-69
2023/10/02 05:50:49;;;;;;;28.42;14.52;;;13.10;99.90;;;;;;5071849;28;20390;-69
2023/10/02 05:53:16;;;;;;;29.80;15.85;;;13.20;99.90;;;;;;5071337;28;20021;-68
2023/10/02 05:56:05;;;;;;;30.77;15.40;;;13.30;99.90;;;;;;5070852;28;20511;-69
2023/10/02 05:58:31;;;;;;;29.58;15.45;;;13.30;99.90;;;;;;5070185;28;20074;-69
2023/10/02 06:01:03;;;;;;;29.95;14.63;;;13.40;99.90;;;;;;5070601;28;20138;-69
2023/10/02 06:03:34;;;;;;;25.88;13.95;;;13.50;99.90;;;;;;5069992;28;20029;-69
2023/10/02 06:08:52;;;;;;;26.77;15.43;;;13.70;99.90;;;;;;5070043;28;20032;-69
2023/10/02 06:11:25;;;;;;;26.38;13.98;;;13.80;99.90;;;;;;5069807;28;20052;-68
2023/10/02 06:13:54;;;;;;;26.13;13.43;;;13.90;99.90;;;;;;5070735;28;20067;-69
2023/10/02 06:16:23;;;;;;;24.30;12.65;;;14.00;99.90;;;;;;5069759;28;20024;-69
2023/10/02 06:19:06;;;;;;;25.83;13.20;;;14.20;99.90;;;;;;5070962;28;20600;-69
2023/10/02 06:21:45;;;;;;;27.38;14.07;;;14.30;99.90;;;;;;5070625;28;20051;-69
2023/10/02 06:24:13;;;;;;;29.50;13.60;;;14.70;99.90;;;;;;5069663;28;20029;-69
2023/10/02 06:26:57;;;;;;;25.85;13.45;;;15.40;99.90;;;;;;5070728;28;20017;-69
2023/10/02 06:29:23;;;;;;;21.48;12.00;;;16.00;99.90;;;;;;5070252;28;20626;-69
2023/10/02 06:31:58;;;;;;;24.88;11.80;;;16.60;99.90;;;;;;5070290;28;20102;-69
2023/10/02 06:34:36;;;;;;;26.10;12.15;;;16.80;99.90;;;;;;5070212;28;20025;-69
2023/10/02 06:37:07;;;;;;;24.58;12.52;;;17.10;99.90;;;;;;5069553;28;20032;-69
2023/10/02 06:39:35;;;;;;;22.42;11.90;;;17.40;99.90;;;;;;5069853;28;20028;-69
2023/10/02 06:42:04;;;;;;;22.42;11.55;;;17.80;99.90;;;;;;5069848;28;20033;-69
2023/10/02 06:44:35;;;;;;;22.88;11.93;;;18.30;99.90;;;;;;5069401;28;20045;-69
2023/10/02 06:47:04;;;;;;;23.25;11.57;;;18.70;99.90;;;;;;5069665;28;20031;-69
2023/10/02 06:49:33;;;;;;;20.13;11.60;;;19.30;39.70;;;;;;5069992;28;20378;-69
2023/10/02 06:52:11;;;;;;;21.92;11.30;;;19.60;8.60;;;;;;5069807;28;20028;-69
2023/10/02 06:54:42;;;;;;;22.98;11.30;;;20.10;1.00;;;;;;5069721;28;20048;-69
2023/10/02 06:57:11;;;;;;;24.38;10.93;;;20.90;1.00;;;;;;5055742;28;20490;-69
2023/10/02 06:59:52;;;;;;;20.33;10.48;;;21.20;99.90;;;;;;5056460;28;20498;-69
2023/10/02 07:02:21;;;;;;;17.10;10.52;;;21.60;99.90;;;;;;5056438;28;20496;-70
2023/10/02 07:04:48;;;;;;;19.50;10.63;;;21.70;99.90;;;;;;5055947;28;20386;-70
2023/10/02 07:07:15;;;;;;;19.08;11.30;;;21.80;99.90;;;;;;5056688;28;20029;-69
2023/10/02 07:09:41;;;;;;;19.50;11.05;;;21.90;1.00;;;;;;5056641;28;20071;-70
2023/10/02 07:12:13;;;;;;;20.70;11.52;;;21.90;1.00;;;;;;5055943;28;20540;-70
2023/10/02 07:14:41;;;;;;;21.10;11.55;;;21.90;1.00;;;;;;5056402;28;20032;-70
2023/10/02 07:17:12;;;;;;;20.42;11.80;;;22.10;12.50;;;;;;5056570;28;20463;-70
2023/10/02 07:19:39;;;;;;;22.90;11.40;;;22.10;1.00;;;;;;5056187;28;20472;-70
2023/10/02 07:22:11;;;;;;;19.13;10.88;;;22.40;99.90;;;;;;5055452;28;20061;-70
2023/10/02 07:24:40;;;;;;;19.52;11.10;;;22.40;99.90;;;;;;5055761;28;20082;-70
2023/10/02 07:27:22;;;;;;;18.67;10.70;;;22.60;99.90;;;;;;5055119;28;20027;-70
2023/10/02 07:29:51;;;;;;;22.33;11.93;;;22.90;1.00;;;;;;5056105;28;20424;-70
2023/10/02 07:32:18;;;;;;;19.63;11.32;;;23.00;99.90;;;;;;5056164;28;20021;-70
2023/10/02 07:34:46;;;;;;;20.55;11.20;;;22.90;52.40;;;;;;5056323;28;20402;-70
2023/10/02 07:37:13;;;;;;;19.63;11.02;;;22.90;99.90;;;;;;5055564;28;20036;-70
2023/10/02 07:39:39;;;;;;;20.45;10.73;;;23.00;1.00;;;;;;5055878;28;20040;-70
2023/10/02 07:42:06;;;;;;;18.85;10.50;;;23.30;1.00;;;;;;5056038;28;20029;-71
2023/10/02 07:44:36;;;;;;;19.63;11.38;;;23.50;99.90;;;;;;5055071;28;20455;-70
2023/10/02 07:47:10;;;;;;;24.33;10.50;;;24.10;99.90;;;;;;5055977;28;20021;-70
2023/10/02 07:49:37;;;;;;;21.35;11.65;;;24.60;99.90;;;;;;5055931;28;20167;-70
2023/10/02 07:52:06;;;;;;;18.20;10.85;;;24.90;99.90;;;;;;5055554;28;20083;-70
2023/10/02 07:54:44;;;;;;;17.65;10.70;;;25.60;99.90;;;;;;5055807;28;20040;-70
2023/10/02 07:57:12;;;;;;;18.15;10.65;;;25.30;94.60;;;;;;5055647;28;20445;-70
2023/10/02 07:59:38;;;;;;;18.75;10.70;;;25.10;74.00;;;;;;5055734;28;20382;-70
2023/10/02 08:02:21;;;;;;;24.10;11.23;;;25.10;1.00;;;;;;5055434;28;20033;-70
2023/10/02 08:04:48;;;;;;;18.98;11.13;;;25.40;1.00;;;;;;5055133;28;20029;-70
2023/10/02 08:07:14;;;;;;;17.52;10.13;;;25.60;99.90;;;;;;5054371;28;20060;-70
2023/10/02 08:09:47;;;;;;;18.75;11.40;;;25.40;1.00;;;;;;5055147;28;20095;-71
2023/10/02 08:12:29;;;;;;;17.45;10.68;;;25.20;1.00;;;;;;5054752;28;20344;-70
2023/10/02 08:14:59;;;;;;;18.10;10.82;;;24.90;99.90;;;;;;5054818;28;20032;-70
2023/10/02 08:17:59;;;;;;;20.33;11.30;;;25.20;99.90;;;;;;5055379;28;20554;-71
2023/10/02 08:20:43;;;;;;;19.92;11.18;;;25.00;99.90;;;;;;5054263;28;20028;-71
2023/10/02 08:22:57;;;;;;;20.60;12.02;;;25.40;1.00;;;;;;5054153;28;20021;-71
2023/10/02 08:25:23;;;;;;;23.05;12.00;;;24.90;99.90;;;;;;5054921;28;20025;-70
2023/10/02 08:27:57;;;;;;;19.92;11.98;;;25.00;1.00;;;;;;5054507;28;20025;-71
2023/10/02 08:30:28;;;;;;;22.23;12.20;;;25.30;42.90;;;;;;5054734;28;20032;-71
2023/10/02 08:33:05;;;;;;;19.58;12.10;;;25.70;1.00;;;;;;5054469;28;20036;-70
2023/10/02 08:35:31;;;;;;;21.67;12.25;;;25.60;99.90;;;;;;5054979;28;20028;-71
2023/10/02 08:37:58;;;;;;;22.58;12.65;;;25.80;99.90;;;;;;5054979;28;20029;-70
2023/10/02 08:40:24;;;;;;;22.50;12.55;;;26.10;99.90;;;;;;5054408;28;20186;-70
2023/10/02 08:42:52;;;;;;;21.70;12.38;;;26.40;99.90;;;;;;5054849;28;20067;-71
2023/10/02 08:45:20;;;;;;;20.80;11.65;;;26.00;37.60;;;;;;5053681;28;20044;-70
2023/10/02 08:47:47;;;;;;;22.73;12.52;;;25.80;99.90;;;;;;5053981;28;20025;-70
2023/10/02 08:50:15;;;;;;;20.27;12.07;;;25.80;99.90;;;;;;5054804;28;20029;-70
2023/10/02 08:52:47;;;;;;;19.25;12.30;;;26.10;99.90;;;;;;5054187;28;20036;-70
2023/10/02 08:55:51;;;;;;;20.65;12.23;;;26.20;99.90;;;;;;5054559;28;20638;-70
2023/10/02 08:58:25;;;;;;;20.73;11.73;;;26.30;1.00;;;;;;5053552;28;20036;-70
2023/10/02 09:04:22;;;;;;;23.08;11.95;;;26.50;99.90;;;;;;5091519;27;20928;-69
2023/10/02 09:06:41;;;;;;;21.23;12.30;;;26.70;75.80;;;;;;5090484;28;20032;-68
2023/10/02 09:11:57;;;;;;;22.65;11.23;;;26.50;99.90;;;;;;5091553;28;20882;-70
2023/10/02 09:17:16;;;;;;;27.85;12.23;;;26.40;1.00;;;;;;5071345;28;20920;-70
2023/10/02 09:19:49;;;;;;;;;;;26.10;1.00;;;;;;5071978;28;20501;-70
2023/10/02 09:22:17;;;;;;;20.88;12.20;;;26.40;80.70;;;;;;5071177;28;19962;-70
2023/10/02 09:24:59;;;;;;;19.60;12.18;;;26.60;1.00;;;;;;5071288;28;20032;-70
2023/10/02 09:27:27;;;;;;;19.90;10.87;;;26.70;99.90;;;;;;5071009;28;20116;-70
2023/10/02 09:32:50;;;;;;;23.58;12.07;;;27.00;99.90;;;;;;5070136;28;20021;-70
2023/10/02 09:35:50;;;;;;;22.35;11.65;;;27.50;99.90;;;;;;5071155;28;20483;-70
2023/10/02 09:38:17;;;;;;;19.83;12.05;;;26.90;99.90;;;;;;5070767;28;20029;-69
2023/10/02 09:41:20;;;;;;;22.05;12.02;;;26.50;19.90;;;;;;5070784;28;20537;-69
2023/10/02 09:43:33;;;;;;;22.30;12.45;;;26.20;1.00;;;;;;5069893;28;20508;-69
2023/10/02 09:46:06;;;;;;;27.25;12.60;;;26.40;99.90;;;;;;5070259;28;20056;-70
2023/10/02 09:52:09;;;;;;;23.08;12.38;;;26.80;99.90;;;;;;5111839;27;20354;-70
2023/10/02 09:54:45;;;;;;;21.23;12.50;;;26.80;1.00;;;;;;5111520;28;20027;-70
2023/10/02 09:57:17;;;;;;;22.98;12.32;;;27.00;99.90;;;;;;5111822;28;20110;-70
2023/10/02 09:59:46;;;;;;;20.25;11.95;;;26.90;99.90;;;;;;5111279;28;20107;-70
2023/10/02 10:02:49;;;;;;;23.45;11.88;;;27.20;1.00;;;;;;5111436;28;20098;-69
2023/10/02 10:10:49;;;;;;;22.52;12.35;;;26.90;99.90;;;;;;5111871;27;20437;-70
2023/10/02 10:13:32;;;;;;;20.08;11.07;;;26.50;99.90;;;;;;5111670;28;20080;-70
2023/10/02 10:22:03;;;;;;;23.63;12.98;;;27.70;1.00;;;;;;5091398;28;20389;-70
2023/10/02 10:24:35;;;;;;;20.77;12.82;;;27.10;1.00;;;;;;5091337;28;20497;-69
2023/10/02 10:27:01;;;;;;;21.20;12.82;;;27.20;99.90;;;;;;5091113;28;20031;-69
2023/10/02 10:29:42;;;;;;;25.20;12.82;;;26.70;99.90;;;;;;5091488;28;20031;-69
2023/10/02 10:32:24;;;;;;;22.52;12.73;;;26.30;99.90;;;;;;5091563;28;20035;-70
2023/10/02 10:35:14;;;;;;;23.17;12.23;;;26.60;99.90;;;;;;5091524;28;20032;-69
2023/10/02 10:37:46;;;;;;;22.27;12.45;;;26.20;99.90;;;;;;5091107;28;20028;-69
2023/10/02 10:43:14;;;;;;;25.67;12.63;;;25.80;1.00;;;;;;5071274;28;20387;-70
2023/10/02 10:45:40;;;;;;;24.77;12.40;;;26.10;1.00;;;;;;5071560;28;20034;-70
2023/10/02 10:48:22;;;;;;;23.08;12.77;;;26.40;99.90;;;;;;5070592;28;20055;-70
2023/10/02 10:51:06;;;;;;;23.40;13.25;;;26.40;99.90;;;;;;5071418;28;20417;-70
2023/10/02 10:53:33;;;;;;;25.02;12.43;;;26.30;99.90;;;;;;5071428;28;20031;-70
2023/10/02 10:56:03;;;;;;;21.35;12.57;;;26.60;99.90;;;;;;5070957;28;20368;-70
2023/10/02 10:58:33;;;;;;;18.73;12.00;;;26.30;99.90;;;;;;5071174;28;20467;-70
2023/10/02 11:01:00;;;;;;;24.17;13.25;;;26.40;1.00;;;;;;5071123;28;20054;-70
2023/10/02 11:03:26;;;;;;;22.08;12.52;;;26.40;99.90;;;;;;5070223;28;20040;-70
2023/10/02 11:05:58;;;;;;;23.35;13.48;;;26.60;99.90;;;;;;5070277;28;20029;-70
2023/10/02 11:08:23;;;;;;;23.70;12.13;;;26.60;99.90;;;;;;5070506;28;20167;-70
2023/10/02 11:11:02;;;;;;;25.83;13.15;;;26.90;99.90;;;;;;5070343;28;20486;-69
2023/10/02 11:13:29;;;;;;;22.33;12.85;;;26.90;99.90;;;;;;5070548;28;20387;-70
2023/10/02 11:16:13;;;;;;;22.73;12.48;;;26.90;99.90;;;;;;5070904;28;20019;-70
2023/10/02 11:18:39;;;;;;;21.88;12.30;;;27.00;99.90;;;;;;5070574;28;20116;-70
2023/10/02 11:21:23;;;;;;;22.08;12.38;;;27.10;99.90;;;;;;5070816;28;20159;-70
2023/10/02 11:23:48;;;;;;;24.63;12.48;;;27.30;99.90;;;;;;5070661;28;20463;-70
2023/10/02 11:26:21;;;;;;;22.42;12.68;;;27.20;99.90;;;;;;5070344;28;20028;-70
2023/10/02 11:28:50;;;;;;;23.13;12.40;;;27.20;99.90;;;;;;5070359;28;20020;-70
2023/10/02 11:31:35;;;;;;;22.50;13.00;;;27.30;99.90;;;;;;5070195;28;20394;-69
2023/10/02 11:34:03;;;;;;;24.42;12.30;;;27.20;99.90;;;;;;5069644;28;20029;-70
2023/10/02 11:36:33;;;;;;;21.95;12.80;;;27.30;99.90;;;;;;5070260;28;20111;-70
2023/10/02 11:39:00;;;;;;;23.95;12.38;;;27.40;99.90;;;;;;5070195;28;20388;-70
2023/10/02 11:41:27;;;;;;;22.20;12.45;;;27.70;99.90;;;;;;5069420;28;20132;-70
2023/10/02 11:43:54;;;;;;;22.73;12.43;;;27.60;99.90;;;;;;5069417;28;20115;-70
2023/10/02 11:46:20;;;;;;;20.02;11.35;;;27.50;99.90;;;;;;5070241;28;20060;-70
2023/10/02 11:48:49;;;;;;;21.35;11.65;;;27.20;99.90;;;;;;5070071;28;20071;-71
2023/10/02 11:51:14;;;;;;;22.60;12.07;;;26.90;99.90;;;;;;5070143;28;20447;-71
2023/10/02 11:53:40;;;;;;;22.13;12.30;;;26.70;99.90;;;;;;5061463;28;20112;-71
2023/10/02 11:56:05;;;;;;;22.40;12.13;;;26.40;99.90;;;;;;5056932;28;20577;-71
2023/10/02 11:58:31;;;;;;;21.38;11.85;;;26.30;99.90;;;;;;5055614;28;20036;-71
2023/10/02 12:00:57;;;;;;;21.33;11.75;;;26.40;1.00;;;;;;5056214;28;20029;-75
2023/10/02 12:03:23;;;;;;;21.10;12.27;;;26.20;99.90;;;;;;5056643;28;20083;-68
2023/10/02 12:05:50;;;;;;;24.23;12.50;;;26.00;1.00;;;;;;5056315;28;20090;-69
2023/10/02 12:08:20;;;;;;;23.25;12.52;;;26.30;1.00;;;;;;5056166;28;20026;-69
2023/10/02 12:10:46;;;;;;;24.02;11.88;;;26.30;99.90;;;;;;5056245;28;20049;-68
2023/10/02 12:13:11;;;;;;;18.55;11.20;;;26.10;1.00;;;;;;5056314;28;20029;-68
2023/10/02 12:15:38;;;;;;;23.00;11.40;;;26.00;1.00;;;;;;5055973;28;20021;-68
2023/10/02 12:18:04;;;;;;;20.48;11.10;;;26.00;4.30;;;;;;5056194;28;20488;-68
2023/10/02 12:20:30;;;;;;;19.25;11.77;;;25.90;1.00;;;;;;5056139;28;20025;-69
2023/10/02 12:22:56;;;;;;;21.98;11.20;;;25.90;1.00;;;;;;5055354;28;20433;-69
2023/10/02 12:25:21;;;;;;;24.13;11.63;;;26.20;1.00;;;;;;5055837;28;20017;-69
2023/10/02 12:27:49;;;;;;;19.40;11.52;;;26.40;1.00;;;;;;5056153;28;20032;-69
2023/10/02 12:30:15;;;;;;;25.58;11.80;;;26.40;99.90;;;;;;5056272;28;20410;-69
2023/10/02 12:32:42;;;;;;;19.98;11.48;;;26.10;1.00;;;;;;5056270;28;20083;-69
2023/10/02 12:35:08;;;;;;;18.67;11.15;;;26.00;98.30;;;;;;5055880;28;20490;-69
2023/10/02 12:37:34;;;;;;;22.80;11.95;;;25.90;1.00;;;;;;5056033;28;20032;-69
2023/10/02 12:39:59;;;;;;;21.48;11.32;;;26.00;1.00;;;;;;5055617;28;20360;-69
2023/10/02 12:42:25;;;;;;;20.17;11.20;;;26.00;99.90;;;;;;5054932;28;20071;-69
2023/10/02 12:44:53;;;;;;;22.83;12.20;;;26.10;99.90;;;;;;5055633;28;20033;-69
2023/10/02 12:47:19;;;;;;;19.65;11.07;;;26.20;99.90;;;;;;5055436;28;20032;-69
2023/10/02 12:49:47;;;;;;;21.30;11.57;;;26.40;99.90;;;;;;5055549;28;20048;-69
2023/10/02 12:52:13;;;;;;;22.40;11.85;;;26.10;99.90;;;;;;5055285;28;20475;-69
2023/10/02 12:54:39;;;;;;;21.88;12.23;;;26.10;99.90;;;;;;5055795;28;20029;-69
2023/10/02 12:57:05;;;;;;;19.70;11.10;;;26.30;1.00;;;;;;5055304;28;20032;-69
2023/10/02 12:59:30;;;;;;;24.10;11.80;;;26.30;99.90;;;;;;5055715;28;20037;-69
2023/10/02 13:01:56;;;;;;;20.05;11.13;;;26.30;1.70;;;;;;5055466;28;20024;-69
2023/10/02 13:04:21;;;;;;;24.80;12.35;;;26.20;99.90;;;;;;5054622;28;20087;-69
2023/10/02 13:06:47;;;;;;;22.88;12.77;;;26.10;99.90;;;;;;5054771;28;20437;-69
2023/10/02 13:11:44;;;;;;;24.45;11.90;;;25.90;99.90;;;;;;5054600;28;20029;-69
2023/10/02 13:14:12;;;;;;;22.77;12.18;;;25.80;1.00;;;;;;5054935;28;20140;-69
2023/10/02 13:16:41;;;;;;;24.00;12.45;;;25.80;1.00;;;;;;5054586;28;20029;-69
2023/10/02 13:19:09;;;;;;;21.33;12.00;;;25.90;1.00;;;;;;5054899;28;20029;-70
2023/10/02 13:21:36;;;;;;;23.10;13.00;;;25.90;1.00;;;;;;5054859;28;20462;-69
2023/10/02 13:24:03;;;;;;;20.77;12.15;;;26.10;99.90;;;;;;5055031;28;20021;-69
2023/10/02 13:26:29;;;;;;;25.05;11.90;;;26.10;99.90;;;;;;5054546;28;20107;-69
2023/10/02 13:28:55;;;;;;;21.90;11.63;;;26.10;99.90;;;;;;5054752;28;20131;-69
2023/10/02 13:31:21;;;;;;;21.67;11.52;;;26.30;99.90;;;;;;5054764;28;20387;-69
2023/10/02 13:33:51;;;;;;;22.45;11.35;;;26.40;99.90;;;;;;5054952;28;20025;-70
2023/10/02 13:36:22;;;;;;;22.15;11.15;;;26.50;99.90;;;;;;5054634;28;20036;-69
2023/10/02 13:38:51;;;;;;;21.25;11.95;;;26.60;99.90;;;;;;5054268;28;20463;-70
2023/10/02 13:41:18;;;;;;;22.55;11.90;;;26.50;99.90;;;;;;5054189;28;20041;-73
2023/10/02 13:43:45;;;;;;;19.50;11.93;;;26.60;99.90;;;;;;5054671;28;20187;-69
2023/10/02 13:46:11;;;;;;;21.77;11.95;;;26.60;99.90;;;;;;5054605;28;20533;-69
2023/10/02 13:48:38;;;;;;;23.10;12.02;;;26.60;99.00;;;;;;5054349;28;20474;-69
2023/10/02 13:51:05;;;;;;;21.58;11.75;;;26.50;1.00;;;;;;5054084;28;20533;-70